Home PIREPS Pireps

Flight BEL12178TR

  • Submitted By: AndrĂ© Vincent
  • Departure Airport: Rotterdam (EHRD)
  • Arrival Airport: Torino / Caselle (LIMF)
  • Aircraft: YOUR CHOICE (YC)
  • Flight Time: 01.33
  • Date Submitted: 13/11/2017
  • Status: Accepted
Flight Details
Gross Revenue:
(25 load / € 0.00 per unit
€ 0.00
Fuel Cost:
(6893 fuel used @ 5.1 / unit)
€ 35,154.30

Additional Log Information:

View Log

Aircraft Used in flight is Boeing 737-800 sabena paint
13:58 Brakes are On
14:00 Brakes are Released
14:03 You Took off @ 205 Knots and Flaps at Position 2
Departure Weather
EHRD 131255Z AUTO 35011KT 300V020 9999 NCD 10/04 Q1020 NOSIGrn
14:03 Landing Gear Up @ 211 Knots and 20 Feet
15:15 You exceeded maximum bank angle
15:24 Landing Gear Down @ 131 Knots and 3160 Feet
15:27 You Landed @ 101 Knots and with -450 Vertical Speed
Arrival Weather
LIMF 131350Z VRB01KT CAVOK 14/M09 Q1002rn
15:30 Brakes are On
15:31 Brussels Bel-Track1.0.1.2

Route Map

Corporate About Us Our Team Vacancies Information Fleet Route Network Rules and Regulations Operations Flight Schedules Event Center Tours Partners IVAO Vatsim Acars dev FSCB

fb Users Online No pilots online!
0 Pilot(s) and 76 Guest(s) Online
CMS by phpVMS - Design by Crazycreatives.com - Copyright © 2018 - Brussels Airlines Virtual